Brant, New York
Current Conditions -  °F | °C
As of 1:24 PM on Monday 26 Jan 2015 (Local Time) from KDKK Reporting Station
Light Snow Light Snow  
Wind Chill:   Ceiling: 2800
Heat Index: 18°   Visibility: 2.5mi
Dew Point: 14°   Wind: 12mph
Humidity: 84%   Direction: 30°NNE
Pressure: 29.84"   Gusts: NA
Location:  42.59°N, 79.02°W
Report Text: KDKK 261824Z AUTO 03010KT 2 1/2SM -SN BR BKN028 OVC035 M08/M10 A2984 RMK AO2 P0000 T10781100
Loading
Personal Weather Stations






























Interactive Weather Map New forecast layout! Learn more

10-Day Weather Forecast

Advertisements
Track Severe Weather on mobile